Time;durP1;ratioP1;P1;durP2;ratioP2;P2;SDS_P1;SDS_P2;PMS_P1;PMS_P2;Temp;Humidity;BMP_temperature;BMP_pressure;BME280_temperature;BME280_humidity;BME280_pressure;Samples;Min_cycle;Max_cycle;Signal;HPM_P1;HPM_P2
2022/05/17 00:06:11;;;;;;;;;;;;;;;;;;21076897;28;19924;-65
2022/05/17 00:16:13;;;;;;;;;;;;;;;;;;21082578;28;19931;-64
2022/05/17 00:26:15;;;;;;;;;;;;;;;;;;21092834;28;19924;-63
2022/05/17 00:36:16;;;;;;;;;;;;;;;;;;21092710;28;19924;-65
2022/05/17 00:46:18;;;;;;;;;;;;;;;;;;21091007;28;19935;-62
2022/05/17 00:56:20;;;;;;;;;;;;;;;;;;21090878;28;20319;-62
2022/05/17 01:06:23;;;;;;;;;;;;;;;;;;21089007;28;19930;-62
2022/05/17 01:16:24;;;;;;;;;;;;;;;;;;21088422;28;19969;-64
2022/05/17 01:26:27;;;;;;;;;;;;;;;;;;21087744;28;20306;-63
2022/05/17 01:36:30;;;;;;;;;;;;;;;;;;21086873;28;19924;-65
2022/05/17 01:46:36;;;;;;;;;;;;;;;;;;21087155;28;20433;-63
2022/05/17 01:56:44;;;;;;;;;;;;;;;;;;21099167;28;19994;-63
2022/05/17 02:06:55;;;;;;;;;;;;;;;;;;21092036;28;20397;-65
2022/05/17 02:16:59;;;;;;;;;;;;;;;;;;21084891;28;19931;-61
2022/05/17 02:27:08;;;;;;;;;;;;;;;;;;21084370;28;20021;-62
2022/05/17 02:37:15;;;;;;;;;;;;;;;;;;21065033;28;19963;-62
2022/05/17 02:47:19;;;;;;;;;;;;;;;;;;21082533;28;19932;-66
2022/05/17 02:57:21;;;;;;;;;;;;;;;;;;21080341;28;20019;-63
2022/05/17 03:07:23;;;;;;;;;;;;;;;;;;21079940;28;19924;-62
2022/05/17 03:17:25;;;;;;;;;;;;;;;;;;21079073;28;19924;-62
2022/05/17 03:27:32;;;;;;;;;;;;;;;;;;21078737;28;19925;-61
2022/05/17 03:37:34;;;;;;;;;;;;;;;;;;21078995;28;19924;-62
2022/05/17 03:47:37;;;;;;;;;;;;;;;;;;21077834;28;19947;-63
2022/05/17 03:57:39;;;;;;;;;;;;;;;;;;21096033;28;19924;-62
2022/05/17 04:07:41;;;;;;;;;;;;;;;;;;21095730;28;19977;-64
2022/05/17 04:17:44;;;;;;;;;;;;;;;;;;21094105;28;20011;-61
2022/05/17 04:27:46;;;;;;;;;;;;;;;;;;21074553;28;19946;-64
2022/05/17 04:37:50;;;;;;;;;;;;;;;;;;21091753;28;20023;-61
2022/05/17 04:47:53;;;;;;;;;;;;;;;;;;21090284;28;19924;-60
2022/05/17 04:57:55;;;;;;;;;;;;;;;;;;21089773;28;19931;-61
2022/05/17 05:07:57;;;;;;;;;;;;;;;;;;21089291;28;20515;-61
2022/05/17 05:17:59;;;;;;;;;;;;;;;;;;21088538;28;19924;-62
2022/05/17 05:28:03;;;;;;;;;;;;;;;;;;21088075;28;20015;-61
2022/05/17 05:38:05;;;;;;;;;;;;;;;;;;21068988;28;20317;-64
2022/05/17 05:48:07;;;;;;;;;;;;;;;;;;21086151;28;19973;-62
2022/05/17 05:58:10;;;;;;;;;;;;;;;;;;21085232;28;19974;-64
2022/05/17 06:08:12;;;;;;;;;;;;;;;;;;21085451;28;19924;-61
2022/05/17 06:18:14;;;;;;;;;;;;;;;;;;21083539;28;19924;-62
2022/05/17 06:28:17;;;;;;;;;;;;;;;;;;21082483;28;19928;-63
2022/05/17 06:38:19;;;;;;;;;;;;;;;;;;21081428;28;20020;-66
2022/05/17 06:48:20;;;;;;;;;;;;;;;;;;21081400;28;19928;-65
2022/05/17 06:58:23;;;;;;;;;;;;;;;;;;21080703;28;20307;-64
2022/05/17 07:08:25;;;;;;;;;;;;;;;;;;21061311;28;19976;-65
2022/05/17 07:18:29;;;;;;;;;;;;;;;;;;21078703;28;19924;-65
2022/05/17 07:28:31;;;;;;;;;;;;;;;;;;21077684;28;19925;-62
2022/05/17 07:38:33;;;;;;;;;;;;;;;;;;21078759;28;19977;-65
2022/05/17 07:48:36;;;;;;;;;;;;;;;;;;21077606;28;19954;-64
2022/05/17 07:58:38;;;;;;;;;;;;;;;;;;21077828;28;20357;-66
2022/05/17 08:08:40;;;;;;;;;;;;;;;;;;21077682;28;19924;-67
2022/05/17 08:18:43;;;;;;;;;;;;;;;;;;21076595;28;19924;-68
2022/05/17 08:28:45;;;;;;;;;;;;;;;;;;21076241;28;20025;-65
2022/05/17 08:38:47;;;;;;;;;;;;;;;;;;21083839;28;19924;-65
2022/05/17 08:48:49;;;;;;;;;;;;;;;;;;21056497;28;19928;-68
2022/05/17 08:58:51;;;;;;;;;;;;;;;;;;21085931;28;19984;-59
2022/05/17 09:08:55;;;;;;;;;;;;;;;;;;21069527;28;20167;-62
2022/05/17 09:18:57;;;;;;;;;;;;;;;;;;21044733;28;19924;-65
2022/05/17 09:29:00;;;;;;;;;;;;;;;;;;21070210;28;20376;-59
2022/05/17 09:39:01;;;;;;;;;;;26.50;41.60;;;;;;21003708;28;19924;-59
2022/05/17 09:59:37;;;;;;;;;;;26.10;42.70;;;;;;21037398;28;20260;-63
2022/05/17 10:09:39;;;;;;;;;;;26.10;42.60;;;;;;21045221;28;19978;-62
2022/05/17 10:19:48;;;;;;;;;;;26.10;42.60;;;;;;21012846;28;19978;-57
2022/05/17 10:29:52;;;;;;;;;;;25.80;43.60;;;;;;21083219;28;20390;-66
2022/05/17 10:39:55;;;;;;;;;;;25.70;43.60;;;;;;21072240;28;19931;-63
2022/05/17 10:50:10;;;;;;;;;;;25.80;41.10;;;;;;21081795;28;20489;-60
2022/05/17 11:00:22;;;;;;;;;;;25.90;41.10;;;;;;21080604;28;19945;-68
2022/05/17 11:10:27;;;;;;;;;;;25.90;41.30;;;;;;21078061;28;20309;-60
2022/05/17 11:20:38;;;;;;;;;;;25.90;40.20;;;;;;21081001;28;20042;-62
2022/05/17 11:30:48;;;;;;;;;;;26.10;37.70;;;;;;21078905;28;19924;-58
2022/05/17 11:40:52;;;;;;;;;;;26.20;36.30;;;;;;21060033;28;19931;-59
2022/05/17 11:50:57;;;;;;;;;;;26.40;34.40;;;;;;21077621;28;19924;-58
2022/05/17 12:00:59;;;;;;;;;;;26.70;33.30;;;;;;21079077;28;20384;-68
2022/05/17 12:11:01;;;;;;;;;;;27.00;30.70;;;;;;21083344;28;19924;-68
2022/05/17 12:21:04;;;;;;;;;;;;;;;;;;21094061;28;20156;-68
2022/05/17 12:31:06;;;;;;;;;;;;;;;;;;21092827;28;19924;-67
2022/05/17 12:51:29;;;;;;;;;;;28.00;28.80;;;;;;21093263;28;20311;-67
2022/05/17 13:01:33;;;;;;;;;;;28.10;29.90;;;;;;21074955;28;19994;-68
2022/05/17 13:11:34;;;;;;;;;;;28.10;30.10;;;;;;21090098;28;19924;-68
2022/05/17 13:21:37;;;;;;;;;;;;;;;;;;21089117;28;19931;-67
2022/05/17 13:31:40;;;;;;;;;;;29.30;29.00;;;;;;21090248;28;19969;-69
2022/05/17 13:41:42;;;;;;;;;;;28.70;29.90;;;;;;21088408;28;20075;-68
2022/05/17 13:51:50;;;;;;;;;;;28.70;29.70;;;;;;21087917;28;20422;-67
2022/05/17 14:01:54;;;;;;;;;;;28.50;30.70;;;;;;21085455;28;19982;-67
2022/05/17 14:11:58;;;;;;;;;;;28.70;31.30;;;;;;21084368;28;19924;-66
2022/05/17 14:22:02;;;;;;;;;;;28.50;31.60;;;;;;21085252;28;20005;-65
2022/05/17 14:32:04;;;;;;;;;;;29.20;31.00;;;;;;21086786;28;19931;-67
2022/05/17 14:42:05;;;;;;;;;;;29.20;31.10;;;;;;21083859;28;20068;-69
2022/05/17 14:52:08;;;;;;;;;;;28.80;32.20;;;;;;21063457;28;19928;-63
2022/05/17 15:02:10;;;;;;;;;;;28.90;32.30;;;;;;21081262;28;19925;-68
2022/05/17 15:12:12;;;;;;;;;;;29.00;32.50;;;;;;21081909;28;19924;-66
2022/05/17 15:22:15;;;;;;;;;;;29.50;31.10;;;;;;21080917;28;19924;-62
2022/05/17 15:32:17;;;;;;;;;;;29.60;30.90;;;;;;21086198;28;19947;-63
2022/05/17 15:42:19;;;;;;;;;;;29.10;31.70;;;;;;21085014;28;19928;-63
2022/05/17 16:02:51;;;;;;;;;;;28.80;32.70;;;;;;20737958;28;19926;-63
2022/05/17 16:12:52;;;;;;;;;;;28.90;32.90;;;;;;20732243;28;20450;-59
2022/05/17 16:22:54;;;;;;;;;;;29.30;32.90;;;;;;20731433;28;19932;-58
2022/05/17 16:32:56;;;;;;;;;;;28.60;33.80;;;;;;20818859;28;19924;-62
2022/05/17 16:43:00;;;;;;;;;;;28.60;33.90;;;;;;21083460;28;19932;-61
2022/05/17 16:53:03;;;;;;;;;;;28.60;34.10;;;;;;21074926;28;19932;-66
2022/05/17 17:03:07;;;;;;;;;;;28.40;34.00;;;;;;21087408;28;19924;-67
2022/05/17 17:13:10;;;;;;;;;;;28.40;34.40;;;;;;21075932;28;20100;-66
2022/05/17 17:23:11;;;;;;;;;;;28.60;34.30;;;;;;21078036;28;20010;-63
2022/05/17 17:43:35;;;;;;;;;;;28.30;34.30;;;;;;21068922;28;20019;-65
2022/05/17 17:53:38;;;;;;;;;;;28.20;34.50;;;;;;21081379;28;19924;-58
2022/05/17 18:03:40;;;;;;;;;;;28.30;34.80;;;;;;21085175;28;20043;-60
2022/05/17 18:13:43;;;;;;;;;;;28.10;35.00;;;;;;21049079;28;20365;-59
2022/05/17 18:23:45;;;;;;;;;;;28.00;34.80;;;;;;21040619;28;19975;-65
2022/05/17 18:33:47;;;;;;;;;;;27.70;35.30;;;;;;21082901;28;19924;-63
2022/05/17 18:43:48;;;;;;;;;;;27.60;35.80;;;;;;21082524;28;19963;-63
2022/05/17 18:53:50;;;;;;;;;;;27.40;36.10;;;;;;21080296;28;19924;-63
2022/05/17 19:03:54;;;;;;;;;;;27.70;35.70;;;;;;21080607;28;20410;-65
2022/05/17 19:13:57;;;;;;;;;;;;;;;;;;21079580;28;19924;-62
2022/05/17 19:24:01;;;;;;;;;;;;;;;;;;21080645;28;19974;-64
2022/05/17 19:34:03;;;;;;;;;;;;;;;;;;21079415;28;19969;-62
2022/05/17 19:44:05;;;;;;;;;;;;;;;;;;21078570;28;20016;-72
2022/05/17 19:54:07;;;;;;;;;;;;;;;;;;21078855;28;19928;-71
2022/05/17 20:04:09;;;;;;;;;;;;;;;;;;21079687;28;19993;-66
2022/05/17 20:14:10;;;;;;;;;;;27.00;36.90;;;;;;21079652;28;19981;-64
2022/05/17 20:24:12;;;;;;;;;;;;;;;;;;21059161;28;20019;-65
2022/05/17 20:34:14;;;;;;;;;;;26.60;37.40;;;;;;21083997;28;19932;-71
2022/05/17 20:44:16;;;;;;;;;;;;;;;;;;21074123;28;19963;-68
2022/05/17 20:54:20;;;;;;;;;;;26.40;38.40;;;;;;21106450;28;19924;-69
2022/05/17 21:04:23;;;;;;;;;;;;;;;;;;21091075;28;20407;-64
2022/05/17 21:14:27;;;;;;;;;;;;;;;;;;21089360;28;19932;-73
2022/05/17 21:24:29;;;;;;;;;;;;;;;;;;21090252;28;20016;-72
2022/05/17 21:34:31;;;;;;;;;;;;;;;;;;21089404;28;19924;-70
2022/05/17 21:44:33;;;;;;;;;;;;;;;;;;21087976;28;19928;-74
2022/05/17 21:54:35;;;;;;;;;;;;;;;;;;21088988;28;19924;-74
2022/05/17 22:04:37;;;;;;;;;;;;;;;;;;21087285;28;20296;-73
2022/05/17 22:14:39;;;;;;;;;;;;;;;;;;21086251;28;19924;-74
2022/05/17 22:24:42;;;;;;;;;;;;;;;;;;21084906;28;19924;-72
2022/05/17 22:34:44;;;;;;;;;;;;;;;;;;21084086;28;19931;-73
2022/05/17 22:55:06;;;;;;;;;;;;;;;;;;21082773;28;19985;-72
2022/05/17 23:05:08;;;;;;;;;;;;;;;;;;21091821;28;20030;-71
2022/05/17 23:15:10;;;;;;;;;;;;;;;;;;21093261;28;19928;-73
2022/05/17 23:35:34;;;;;;;;;;;;;;;;;;21081608;28;20372;-73
2022/05/17 23:45:36;;;;;;;;;;;;;;;;;;21079838;28;19927;-74
2022/05/17 23:55:38;;;;;;;;;;;;;;;;;;21079873;28;20299;-71
